createdAt,value
2022-12-14T00:01:24.993Z,11.90
2022-12-14T00:03:52.951Z,11.57
2022-12-14T00:06:22.641Z,10.82
2022-12-14T00:08:51.523Z,11.10
2022-12-14T00:11:25.903Z,10.77
2022-12-14T00:13:54.555Z,10.70
2022-12-14T00:16:22.729Z,11.73
2022-12-14T00:18:51.573Z,11.07
2022-12-14T00:21:19.252Z,11.50
2022-12-14T00:23:47.284Z,11.52
2022-12-14T00:26:16.343Z,11.80
2022-12-14T00:28:44.373Z,11.52
2022-12-14T00:31:12.653Z,14.98
2022-12-14T00:33:40.219Z,12.60
2022-12-14T00:36:09.304Z,17.10
2022-12-14T00:38:37.609Z,28.00
2022-12-14T00:41:05.473Z,13.23
2022-12-14T00:43:33.242Z,11.50
2022-12-14T00:46:00.929Z,11.25
2022-12-14T00:48:29.065Z,11.15
2022-12-14T00:50:57.420Z,10.77
2022-12-14T00:53:26.045Z,10.75
2022-12-14T00:55:53.889Z,11.05
2022-12-14T00:58:23.272Z,10.95
2022-12-14T01:01:01.300Z,13.02
2022-12-14T01:03:29.636Z,10.77
2022-12-14T01:05:57.554Z,10.75
2022-12-14T01:08:25.522Z,11.88
2022-12-14T01:10:53.615Z,10.80
2022-12-14T01:13:21.140Z,10.35
2022-12-14T01:15:48.739Z,11.27
2022-12-14T01:18:16.401Z,11.35
2022-12-14T01:20:43.894Z,11.85
2022-12-14T01:23:11.524Z,11.02
2022-12-14T01:25:39.162Z,12.18
2022-12-14T01:28:06.844Z,9.95
2022-12-14T01:30:34.453Z,12.40
2022-12-14T01:33:02.281Z,12.05
2022-12-14T01:35:29.880Z,9.70
2022-12-14T01:37:57.671Z,10.18
2022-12-14T01:40:25.500Z,11.77
2022-12-14T01:42:53.072Z,10.18
2022-12-14T01:45:22.582Z,12.02
2022-12-14T01:47:55.322Z,11.07
2022-12-14T01:50:27.440Z,10.40
2022-12-14T01:52:56.413Z,11.45
2022-12-14T01:55:26.553Z,11.93
2022-12-14T01:58:13.740Z,11.65
2022-12-14T02:00:41.413Z,10.48
2022-12-14T02:03:12.273Z,11.73
2022-12-14T02:05:43.944Z,11.05
2022-12-14T02:08:12.156Z,11.18
2022-12-14T02:10:39.860Z,10.38
2022-12-14T02:13:17.614Z,10.13
2022-12-14T02:15:45.452Z,10.73
2022-12-14T02:18:16.364Z,11.30
2022-12-14T02:21:02.620Z,10.88
2022-12-14T02:23:33.314Z,10.48
2022-12-14T02:26:06.941Z,9.60
2022-12-14T02:28:53.032Z,11.20
2022-12-14T02:31:20.514Z,12.93
2022-12-14T02:33:55.800Z,11.02
2022-12-14T02:36:32.423Z,12.18
2022-12-14T02:39:03.293Z,12.15
2022-12-14T02:41:41.623Z,10.23
2022-12-14T02:44:09.103Z,11.18
2022-12-14T02:46:55.141Z,12.15
2022-12-14T02:49:25.544Z,11.63
2022-12-14T02:52:05.582Z,11.60
2022-12-14T02:54:33.104Z,12.38
2022-12-14T02:57:16.763Z,11.73
2022-12-14T02:59:44.830Z,13.32
2022-12-14T03:02:14.412Z,11.43
2022-12-14T03:04:47.767Z,11.32
2022-12-14T03:07:32.845Z,12.23
2022-12-14T03:10:04.752Z,11.10
2022-12-14T03:12:32.553Z,11.07
2022-12-14T03:15:00.822Z,12.48
2022-12-14T03:17:30.913Z,11.80
2022-12-14T03:20:11.612Z,11.23
2022-12-14T03:23:02.394Z,12.38
2022-12-14T03:25:32.162Z,13.43
2022-12-14T03:28:03.899Z,12.32
2022-12-14T03:30:58.761Z,12.43
2022-12-14T03:33:22.241Z,12.75
2022-12-14T03:35:59.372Z,12.18
2022-12-14T03:38:36.854Z,11.15
2022-12-14T03:41:16.652Z,12.52
2022-12-14T03:44:02.143Z,11.52
2022-12-14T03:46:37.702Z,11.90
2022-12-14T03:49:24.123Z,11.52
2022-12-14T03:52:11.810Z,11.07
2022-12-14T03:54:48.845Z,11.85
2022-12-14T03:57:36.651Z,11.80
2022-12-14T04:00:09.552Z,11.80
2022-12-14T04:02:49.674Z,11.73
2022-12-14T04:05:30.594Z,12.57
2022-12-14T04:08:10.032Z,12.70
2022-12-14T04:11:01.799Z,11.98
2022-12-14T04:14:18.832Z,11.50
2022-12-14T04:17:06.644Z,12.02
2022-12-14T04:19:48.889Z,11.10
2022-12-14T04:22:19.710Z,12.68
2022-12-14T04:25:13.072Z,12.63
2022-12-14T04:27:43.446Z,13.02
2022-12-14T04:30:11.980Z,12.70
2022-12-14T04:32:49.290Z,12.48
2022-12-14T04:35:38.493Z,12.80
2022-12-14T04:38:11.663Z,14.05
2022-12-14T04:41:05.735Z,13.93
2022-12-14T04:43:36.763Z,12.15
2022-12-14T04:46:12.942Z,13.10
2022-12-14T04:48:55.944Z,12.23
2022-12-14T04:51:30.551Z,13.75
2022-12-14T04:54:06.322Z,13.02
2022-12-14T04:56:37.404Z,14.15
2022-12-14T04:59:05.086Z,12.82
2022-12-14T05:01:39.140Z,13.35
2022-12-14T05:04:27.505Z,16.98
2022-12-14T05:06:55.065Z,13.60
2022-12-14T05:09:30.512Z,13.32
2022-12-14T05:12:24.411Z,14.52
2022-12-14T05:15:06.423Z,15.18
2022-12-14T05:17:38.499Z,14.50
2022-12-14T05:20:07.160Z,13.32
2022-12-14T05:22:35.302Z,14.80
2022-12-14T05:25:03.263Z,16.30
2022-12-14T05:27:31.148Z,13.43
2022-12-14T05:29:58.762Z,14.50
2022-12-14T05:32:26.514Z,14.05
2022-12-14T05:34:54.273Z,12.98
2022-12-14T05:37:22.832Z,13.80
2022-12-14T05:39:50.912Z,12.98
2022-12-14T05:42:18.530Z,15.23
2022-12-14T05:44:45.909Z,13.65
2022-12-14T05:47:14.260Z,14.73
2022-12-14T05:49:41.818Z,15.23
2022-12-14T05:52:09.529Z,15.55
2022-12-14T05:54:38.884Z,14.52
2022-12-14T05:57:07.255Z,12.88
2022-12-14T05:59:34.703Z,14.63
2022-12-14T06:02:02.398Z,14.05
2022-12-14T06:04:31.167Z,14.10
2022-12-14T06:06:58.843Z,15.13
2022-12-14T06:09:26.483Z,14.25
2022-12-14T06:11:54.121Z,13.20
2022-12-14T06:14:22.152Z,15.40
2022-12-14T06:16:49.823Z,13.60
2022-12-14T06:19:17.462Z,16.17
2022-12-14T06:21:45.450Z,15.57
2022-12-14T06:24:13.624Z,11.88
2022-12-14T06:26:41.376Z,15.07
2022-12-14T06:29:11.914Z,16.25
2022-12-14T06:31:39.711Z,14.27
2022-12-14T06:34:07.202Z,14.50
2022-12-14T06:36:36.244Z,15.48
2022-12-14T06:39:05.273Z,15.52
2022-12-14T06:41:33.393Z,15.23
2022-12-14T06:44:08.680Z,15.35
2022-12-14T06:46:36.866Z,14.38
2022-12-14T06:49:06.155Z,14.98
2022-12-14T06:51:34.114Z,14.48
2022-12-14T06:54:01.695Z,14.85
2022-12-14T06:56:29.542Z,14.50
2022-12-14T06:58:57.394Z,14.15
2022-12-14T07:01:26.063Z,15.88
2022-12-14T07:03:55.393Z,13.40
2022-12-14T07:06:24.178Z,14.52
2022-12-14T07:08:54.092Z,14.68
2022-12-14T07:11:22.272Z,13.90
2022-12-14T07:13:51.291Z,14.75
2022-12-14T07:16:24.109Z,14.10
2022-12-14T07:18:52.247Z,14.80
2022-12-14T07:21:21.212Z,14.48
2022-12-14T07:23:49.894Z,14.23
2022-12-14T07:26:19.330Z,16.17
2022-12-14T07:28:47.425Z,14.98
2022-12-14T07:31:16.841Z,18.85
2022-12-14T07:33:44.703Z,15.70
2022-12-14T07:36:13.662Z,15.40
2022-12-14T07:38:41.793Z,15.05
2022-12-14T07:41:22.643Z,15.88
2022-12-14T07:43:51.413Z,14.70
2022-12-14T07:46:20.215Z,16.60
2022-12-14T07:48:49.047Z,15.70
2022-12-14T07:51:17.751Z,16.23
2022-12-14T07:53:45.573Z,16.15
2022-12-14T07:56:17.442Z,16.02
2022-12-14T07:58:45.581Z,15.60
2022-12-14T08:01:14.923Z,20.98
2022-12-14T08:03:43.702Z,16.25
2022-12-14T08:06:12.953Z,18.02
2022-12-14T08:08:41.224Z,19.50
2022-12-14T08:11:09.603Z,22.92
2022-12-14T08:13:39.805Z,14.80
2022-12-14T08:16:08.875Z,18.88
2022-12-14T08:18:36.642Z,15.48
2022-12-14T08:21:05.314Z,15.20
2022-12-14T08:23:33.634Z,16.23
2022-12-14T08:26:02.820Z,14.70
2022-12-14T08:28:32.231Z,16.33
2022-12-14T08:31:04.325Z,15.98
2022-12-14T08:33:32.606Z,15.55
2022-12-14T08:36:05.633Z,15.05
2022-12-14T08:38:33.254Z,15.30
2022-12-14T08:41:09.603Z,13.85
2022-12-14T08:43:37.574Z,15.02
2022-12-14T08:46:05.852Z,15.43
2022-12-14T08:48:33.654Z,13.57
2022-12-14T08:51:08.632Z,15.13
2022-12-14T08:53:36.584Z,15.45
2022-12-14T08:56:11.564Z,17.00
2022-12-14T08:58:39.780Z,14.77
2022-12-14T09:01:14.794Z,15.85
2022-12-14T09:03:43.094Z,16.13
2022-12-14T09:06:11.515Z,14.73
2022-12-14T09:08:39.451Z,16.50
2022-12-14T09:11:07.310Z,15.70
2022-12-14T09:13:35.304Z,15.85
2022-12-14T09:16:04.408Z,16.05
2022-12-14T09:18:32.732Z,16.20
2022-12-14T09:21:01.820Z,14.50
2022-12-14T09:23:30.616Z,14.93
2022-12-14T09:26:09.437Z,15.57
2022-12-14T09:28:37.873Z,14.68
2022-12-14T09:31:07.263Z,14.77
2022-12-14T09:33:35.500Z,13.73
2022-12-14T09:36:04.375Z,15.02
2022-12-14T09:38:32.872Z,16.25
2022-12-14T09:41:07.021Z,15.98
2022-12-14T09:43:37.143Z,16.40
2022-12-14T09:46:11.398Z,14.85
2022-12-14T09:48:39.177Z,12.70
2022-12-14T09:51:07.082Z,16.95
2022-12-14T09:53:37.171Z,14.77
2022-12-14T09:56:07.083Z,15.50
2022-12-14T09:58:35.584Z,16.08
2022-12-14T10:01:09.453Z,20.20
2022-12-14T10:06:08.292Z,19.75
2022-12-14T10:08:39.508Z,18.67
2022-12-14T10:11:39.504Z,18.38
2022-12-14T10:14:41.012Z,16.65
2022-12-14T10:17:20.357Z,17.13
2022-12-14T10:19:58.378Z,16.63
2022-12-14T10:22:32.454Z,16.95
2022-12-14T10:25:20.523Z,17.15
2022-12-14T10:28:12.274Z,17.30
2022-12-14T10:30:42.252Z,17.45
2022-12-14T10:33:25.453Z,17.95
2022-12-14T10:35:57.052Z,17.40
2022-12-14T10:38:31.322Z,16.85
2022-12-14T10:41:04.223Z,16.73
2022-12-14T10:43:34.630Z,17.30
2022-12-14T10:46:14.507Z,15.05
2022-12-14T10:48:42.340Z,17.17
2022-12-14T10:51:25.443Z,17.30
2022-12-14T10:53:56.273Z,18.77
2022-12-14T10:56:29.101Z,17.17
2022-12-14T10:59:15.630Z,17.63
2022-12-14T11:01:43.801Z,16.42
2022-12-14T11:04:30.110Z,19.92
2022-12-14T11:07:01.811Z,16.90
2022-12-14T11:09:29.724Z,16.95
2022-12-14T11:12:02.536Z,17.30
2022-12-14T11:14:30.496Z,17.70
2022-12-14T11:16:58.560Z,18.67
2022-12-14T11:19:27.334Z,15.90
2022-12-14T11:22:27.502Z,16.50
2022-12-14T11:24:56.435Z,19.42
2022-12-14T11:27:25.725Z,17.13
2022-12-14T11:29:53.785Z,18.77
2022-12-14T11:32:24.931Z,16.63
2022-12-14T11:34:59.695Z,20.88
2022-12-14T11:37:29.773Z,21.65
2022-12-14T11:43:07.549Z,21.60
2022-12-14T11:45:41.753Z,22.42
2022-12-14T11:48:22.956Z,18.10
2022-12-14T11:50:59.829Z,22.35
2022-12-14T11:53:31.141Z,17.08
2022-12-14T12:01:43.568Z,41.38
2022-12-14T12:04:22.225Z,18.13
2022-12-14T12:06:54.153Z,18.27
2022-12-14T12:09:32.234Z,18.88
2022-12-14T12:14:50.012Z,19.20
2022-12-14T12:17:42.905Z,23.15
2022-12-14T12:20:19.776Z,20.02
2022-12-14T12:22:50.183Z,21.48
2022-12-14T12:25:28.399Z,24.98
2022-12-14T12:28:04.746Z,30.88
2022-12-14T12:30:34.595Z,26.85
2022-12-14T12:33:06.302Z,22.88
2022-12-14T12:35:38.221Z,18.75
2022-12-14T12:38:21.143Z,20.00
2022-12-14T12:40:55.942Z,19.45
2022-12-14T12:43:29.735Z,18.25
2022-12-14T12:45:57.587Z,19.02
2022-12-14T12:48:29.274Z,18.45
2022-12-14T12:51:01.662Z,18.92
2022-12-14T12:53:55.894Z,18.27
2022-12-14T12:56:30.154Z,19.05
2022-12-14T12:59:00.654Z,18.88
2022-12-14T13:01:37.091Z,17.20
2022-12-14T13:04:06.754Z,17.30
2022-12-14T13:06:41.076Z,17.60
2022-12-14T13:09:17.250Z,18.58
2022-12-14T13:11:45.186Z,17.58
2022-12-14T13:14:18.788Z,17.83
2022-12-14T13:16:46.753Z,16.23
2022-12-14T13:22:15.854Z,17.15
2022-12-14T13:24:45.152Z,17.80
2022-12-14T13:27:25.092Z,18.42
2022-12-14T13:29:55.263Z,16.85
2022-12-14T13:32:38.041Z,17.92
2022-12-14T13:35:11.611Z,17.10
2022-12-14T13:37:45.071Z,19.58
2022-12-14T13:40:15.660Z,17.70
2022-12-14T13:42:52.366Z,19.63
2022-12-14T13:45:24.604Z,24.40
2022-12-14T13:47:54.647Z,17.75
2022-12-14T13:50:37.097Z,16.90
2022-12-14T13:53:14.463Z,15.93
2022-12-14T13:55:49.045Z,16.45
2022-12-14T13:58:16.604Z,14.60
2022-12-14T14:00:47.573Z,15.05
2022-12-14T14:03:34.082Z,15.13
2022-12-14T14:06:13.750Z,15.65
2022-12-14T14:08:42.862Z,15.35
2022-12-14T14:11:38.199Z,16.23
2022-12-14T14:14:16.365Z,16.45
2022-12-14T14:16:45.326Z,15.27
2022-12-14T14:19:13.072Z,19.25
2022-12-14T14:22:26.283Z,20.65
2022-12-14T14:25:11.951Z,17.05
2022-12-14T14:27:40.521Z,16.00
2022-12-14T14:30:23.341Z,16.38
2022-12-14T14:33:07.635Z,16.67
2022-12-14T14:35:41.291Z,15.27
2022-12-14T14:38:12.843Z,16.60
2022-12-14T14:41:42.144Z,15.75
2022-12-14T14:43:36.533Z,17.13
2022-12-14T14:46:06.302Z,15.82
2022-12-14T14:48:39.651Z,17.80
2022-12-14T14:51:26.742Z,16.65
2022-12-14T14:54:30.341Z,19.08
2022-12-14T14:57:01.304Z,19.60
2022-12-14T14:59:32.714Z,21.48
2022-12-14T15:02:03.152Z,22.10
2022-12-14T15:04:34.367Z,24.50
2022-12-14T15:07:08.846Z,22.15
2022-12-14T15:09:44.882Z,22.80
2022-12-14T15:12:29.107Z,22.42
2022-12-14T15:14:59.763Z,24.35
2022-12-14T15:17:27.924Z,22.90
2022-12-14T15:19:56.177Z,25.20
2022-12-14T15:22:25.982Z,27.75
2022-12-14T15:24:55.370Z,25.63
2022-12-14T15:27:33.673Z,21.58
2022-12-14T15:30:13.501Z,22.23
2022-12-14T15:32:47.503Z,28.58
2022-12-14T15:35:17.039Z,32.20
2022-12-14T15:37:52.340Z,33.13
2022-12-14T15:40:23.939Z,35.10
2022-12-14T15:42:52.743Z,28.23
2022-12-14T15:45:26.886Z,28.65
2022-12-14T15:47:55.117Z,30.65
2022-12-14T15:50:22.985Z,28.80
2022-12-14T15:52:51.929Z,29.23
2022-12-14T15:55:34.273Z,24.42
2022-12-14T15:58:22.133Z,23.38
2022-12-14T16:00:54.545Z,21.42
2022-12-14T16:03:35.542Z,27.83
2022-12-14T16:06:04.062Z,26.52
2022-12-14T16:08:33.122Z,24.23
2022-12-14T16:11:03.367Z,23.25
2022-12-14T16:13:33.517Z,22.23
2022-12-14T16:16:10.033Z,23.08
2022-12-14T16:18:44.212Z,34.15
2022-12-14T16:21:32.711Z,53.25
2022-12-14T16:24:00.871Z,43.10
2022-12-14T16:26:40.263Z,39.75
2022-12-14T16:29:21.823Z,43.85
2022-12-14T16:31:49.364Z,32.13
2022-12-14T16:34:19.950Z,33.88
2022-12-14T16:37:14.579Z,30.10
2022-12-14T16:39:41.363Z,27.55
2022-12-14T16:42:18.881Z,29.08
2022-12-14T16:44:47.443Z,27.30
2022-12-14T16:47:14.921Z,26.17
2022-12-14T16:49:44.034Z,27.20
2022-12-14T16:52:17.045Z,27.98
2022-12-14T16:54:46.142Z,27.13
2022-12-14T16:57:24.715Z,25.02
2022-12-14T17:00:00.006Z,28.35
2022-12-14T17:02:29.731Z,25.42
2022-12-14T17:04:58.764Z,27.20
2022-12-14T17:07:27.593Z,27.05
2022-12-14T17:09:57.121Z,25.02
2022-12-14T17:12:27.661Z,26.05
2022-12-14T17:14:55.472Z,26.45
2022-12-14T17:17:25.864Z,27.13
2022-12-14T17:19:53.606Z,25.25
2022-12-14T17:22:25.832Z,25.30
2022-12-14T17:24:53.795Z,29.15
2022-12-14T17:27:26.980Z,27.75
2022-12-14T17:29:55.195Z,25.93
2022-12-14T17:32:23.293Z,24.80
2022-12-14T17:34:50.784Z,24.65
2022-12-14T17:37:19.648Z,24.85
2022-12-14T17:39:47.655Z,26.08
2022-12-14T17:42:16.314Z,27.38
2022-12-14T17:44:45.001Z,25.65
2022-12-14T17:47:13.741Z,26.13
2022-12-14T17:49:42.934Z,29.75
2022-12-14T17:52:17.814Z,26.30
2022-12-14T17:54:45.792Z,28.92
2022-12-14T17:57:20.727Z,29.83
2022-12-14T17:59:49.707Z,26.27
2022-12-14T18:02:27.750Z,26.77
2022-12-14T18:04:55.345Z,31.42
2022-12-14T18:07:23.867Z,29.23
2022-12-14T18:09:53.652Z,32.40
2022-12-14T18:12:23.503Z,28.02
2022-12-14T18:14:52.040Z,26.08
2022-12-14T18:17:20.110Z,28.17
2022-12-14T18:19:47.970Z,43.33
2022-12-14T18:22:17.537Z,41.53
2022-12-14T18:24:45.822Z,39.10
2022-12-14T18:27:15.342Z,26.17
2022-12-14T18:29:42.915Z,25.33
2022-12-14T18:32:14.810Z,24.90
2022-12-14T18:34:42.279Z,28.85
2022-12-14T18:37:10.143Z,30.95
2022-12-14T18:39:37.888Z,31.45
2022-12-14T18:42:05.484Z,31.17
2022-12-14T18:44:32.913Z,30.98
2022-12-14T18:47:20.306Z,30.75
2022-12-14T18:49:48.358Z,28.45
2022-12-14T18:52:16.562Z,26.08
2022-12-14T18:54:44.244Z,25.10
2022-12-14T18:57:12.468Z,25.73
2022-12-14T18:59:42.783Z,24.85
2022-12-14T19:02:15.604Z,23.35
2022-12-14T19:04:43.334Z,23.98
2022-12-14T19:07:11.310Z,25.10
2022-12-14T19:09:39.229Z,25.52
2022-12-14T19:12:07.289Z,25.75
2022-12-14T19:14:35.006Z,25.27
2022-12-14T19:17:02.632Z,25.30
2022-12-14T19:19:36.866Z,24.75
2022-12-14T19:22:08.821Z,25.50
2022-12-14T19:24:38.368Z,35.50
2022-12-14T19:27:06.455Z,28.08
2022-12-14T19:29:35.834Z,26.85
2022-12-14T19:32:05.846Z,30.30
2022-12-14T19:34:33.923Z,30.35
2022-12-14T19:37:01.909Z,27.05
2022-12-14T19:39:29.423Z,27.60
2022-12-14T19:41:58.193Z,26.60
2022-12-14T19:44:26.835Z,25.85
2022-12-14T19:46:54.818Z,25.08
2022-12-14T19:49:22.700Z,25.73
2022-12-14T19:51:51.007Z,24.05
2022-12-14T19:54:18.800Z,23.50
2022-12-14T19:56:46.405Z,24.70
2022-12-14T19:59:16.878Z,24.38
2022-12-14T20:01:48.018Z,24.48
2022-12-14T20:04:17.163Z,28.00
2022-12-14T20:06:44.930Z,25.17
2022-12-14T20:09:14.563Z,24.45
2022-12-14T20:11:42.243Z,24.55
2022-12-14T20:14:10.502Z,23.45
2022-12-14T20:16:38.230Z,22.80
2022-12-14T20:19:06.900Z,24.88
2022-12-14T20:21:34.443Z,22.23
2022-12-14T20:24:02.652Z,25.40
2022-12-14T20:26:30.825Z,26.55
2022-12-14T20:29:05.773Z,22.48
2022-12-14T20:31:34.072Z,23.83
2022-12-14T20:34:02.361Z,24.58
2022-12-14T20:36:30.965Z,43.42
2022-12-14T20:39:01.559Z,33.67
2022-12-14T20:41:29.794Z,22.90
2022-12-14T20:43:57.484Z,23.60
2022-12-14T20:46:31.571Z,24.35
2022-12-14T20:51:30.273Z,21.40
2022-12-14T20:53:57.872Z,24.67
2022-12-14T20:56:25.616Z,25.35
2022-12-14T20:58:53.513Z,27.23
2022-12-14T21:01:21.568Z,26.95
2022-12-14T21:03:50.150Z,31.15
2022-12-14T21:06:21.884Z,28.10
2022-12-14T21:09:02.053Z,24.10
2022-12-14T21:11:48.823Z,27.35
2022-12-14T21:14:16.594Z,26.05
2022-12-14T21:16:44.174Z,26.80
2022-12-14T21:19:13.492Z,27.55
2022-12-14T21:21:41.564Z,29.33
2022-12-14T21:24:10.864Z,36.72
2022-12-14T21:26:40.191Z,28.98
2022-12-14T21:29:09.024Z,30.42
2022-12-14T21:31:37.195Z,27.48
2022-12-14T21:34:05.390Z,25.75
2022-12-14T21:36:33.653Z,29.63
2022-12-14T21:39:02.765Z,30.70
2022-12-14T21:41:49.150Z,25.00
2022-12-14T21:44:17.200Z,28.67
2022-12-14T21:46:44.920Z,26.73
2022-12-14T21:49:12.466Z,27.13
2022-12-14T21:51:40.112Z,28.45
2022-12-14T21:54:07.773Z,24.88
2022-12-14T21:56:55.522Z,34.92
2022-12-14T21:59:30.263Z,25.65
2022-12-14T22:01:58.964Z,26.60
2022-12-14T22:04:27.307Z,29.00
2022-12-14T22:06:55.155Z,30.02
2022-12-14T22:09:23.002Z,28.70
2022-12-14T22:11:51.091Z,30.35
2022-12-14T22:14:19.963Z,25.58
2022-12-14T22:16:47.709Z,27.05
2022-12-14T22:19:17.233Z,29.17
2022-12-14T22:21:44.680Z,25.00
2022-12-14T22:24:12.315Z,26.05
2022-12-14T22:26:40.553Z,26.77
2022-12-14T22:29:08.823Z,24.73
2022-12-14T22:31:37.289Z,25.77
2022-12-14T22:34:09.441Z,27.25
2022-12-14T22:36:37.318Z,26.50
2022-12-14T22:39:05.323Z,27.15
2022-12-14T22:41:33.124Z,28.33
2022-12-14T22:44:00.583Z,27.55
2022-12-14T22:46:29.109Z,27.85
2022-12-14T22:48:57.122Z,26.85
2022-12-14T22:51:25.673Z,25.50
2022-12-14T22:53:53.433Z,25.75
2022-12-14T22:56:36.464Z,24.30
2022-12-14T22:59:05.782Z,26.02
2022-12-14T23:01:34.224Z,25.95
2022-12-14T23:04:02.679Z,25.77
2022-12-14T23:06:30.332Z,27.38
2022-12-14T23:09:16.551Z,25.90
2022-12-14T23:12:03.050Z,25.95
2022-12-14T23:14:49.361Z,24.85
2022-12-14T23:17:35.412Z,27.77
2022-12-14T23:20:21.662Z,25.98
2022-12-14T23:23:07.874Z,26.25
2022-12-14T23:25:54.302Z,27.20
2022-12-14T23:28:40.394Z,27.30
2022-12-14T23:31:26.389Z,27.95
2022-12-14T23:34:12.791Z,27.60
2022-12-14T23:36:59.231Z,27.40
2022-12-14T23:39:45.684Z,26.50
2022-12-14T23:42:32.104Z,25.38
2022-12-14T23:45:18.701Z,26.77
2022-12-14T23:48:04.801Z,27.08
2022-12-14T23:50:51.221Z,28.23
2022-12-14T23:53:37.222Z,27.00
2022-12-14T23:56:23.891Z,26.13
2022-12-14T23:59:13.706Z,25.20
